Time;durP1;ratioP1;P1;durP2;ratioP2;P2;SDS_P1;SDS_P2;PMS_P1;PMS_P2;Temp;Humidity;BMP_temperature;BMP_pressure;BME280_temperature;BME280_humidity;BME280_pressure;Samples;Min_cycle;Max_cycle;Signal;HPM_P1;HPM_P2
2022/03/19 00:00:22;;;;;;;13.57;4.35;;;4.50;99.90;;;;;;2144173;66;20221;-73
2022/03/19 00:03:06;;;;;;;11.23;2.92;;;4.40;99.90;;;;;;2152052;66;21491;-73
2022/03/19 00:05:51;;;;;;;10.98;3.70;;;4.40;99.90;;;;;;2150557;66;20246;-73
2022/03/19 00:08:34;;;;;;;12.32;3.40;;;4.40;99.90;;;;;;2158576;66;20395;-73
2022/03/19 00:11:20;;;;;;;11.95;3.20;;;4.40;99.90;;;;;;2145809;66;20830;-73
2022/03/19 00:14:02;;;;;;;10.50;3.42;;;4.40;99.90;;;;;;2138916;66;20179;-74
2022/03/19 00:16:45;;;;;;;11.95;3.67;;;4.40;99.90;;;;;;2138189;67;20649;-73
2022/03/19 00:19:29;;;;;;;12.63;3.30;;;4.30;99.90;;;;;;2127740;67;20320;-73
2022/03/19 00:22:14;;;;;;;9.30;3.17;;;4.40;99.90;;;;;;2138575;66;20723;-73
2022/03/19 00:24:57;;;;;;;10.50;2.15;;;4.30;99.90;;;;;;2146702;66;20295;-73
2022/03/19 00:27:42;;;;;;;10.32;3.38;;;4.30;99.90;;;;;;2152563;66;20310;-75
2022/03/19 00:30:24;;;;;;;7.22;2.55;;;4.30;99.90;;;;;;2145952;66;20886;-72
2022/03/19 00:33:06;;;;;;;10.45;2.70;;;4.30;99.90;;;;;;2139159;67;20252;-75
2022/03/19 00:35:47;;;;;;;12.93;3.08;;;4.20;99.90;;;;;;2139918;66;20183;-73
2022/03/19 00:38:29;;;;;;;7.47;3.03;;;4.20;99.90;;;;;;2141261;66;20331;-74
2022/03/19 00:41:13;;;;;;;10.45;3.03;;;4.20;99.90;;;;;;2155105;66;20252;-73
2022/03/19 00:43:59;;;;;;;13.75;2.78;;;4.20;99.90;;;;;;2141506;67;20331;-74
2022/03/19 00:46:43;;;;;;;;;;;4.20;99.90;;;;;;2135604;66;20564;-72
2022/03/19 00:49:26;;;;;;;10.70;2.85;;;4.20;99.90;;;;;;2153598;66;20386;-73
2022/03/19 00:52:11;;;;;;;12.18;4.05;;;4.20;99.90;;;;;;2153951;66;20181;-73
2022/03/19 00:54:54;;;;;;;14.90;3.10;;;4.20;99.90;;;;;;2168557;66;20443;-73
2022/03/19 00:57:43;;;;;;;9.52;3.03;;;4.20;99.90;;;;;;2160670;66;20746;-73
2022/03/19 01:00:26;;;;;;;14.77;3.00;;;4.40;99.90;;;;;;2146169;66;20734;-73
2022/03/19 01:03:11;;;;;;;10.75;2.85;;;4.10;99.90;;;;;;2138475;66;20233;-74
2022/03/19 01:05:54;;;;;;;10.95;3.50;;;4.20;99.90;;;;;;2137945;67;20393;-73
2022/03/19 01:08:36;;;;;;;16.08;3.28;;;4.10;99.90;;;;;;2130746;67;20238;-73
2022/03/19 01:11:23;;;;;;;10.85;3.78;;;4.10;99.90;;;;;;2144718;66;20237;-73
2022/03/19 01:14:05;;;;;;;12.90;3.58;;;4.10;99.90;;;;;;2145633;66;20836;-73
2022/03/19 01:16:50;;;;;;;14.43;3.83;;;4.10;99.90;;;;;;2131860;67;20802;-73
2022/03/19 01:22:33;;;;;;;11.50;3.40;;;4.10;99.90;;;;;;2118916;67;20300;-73
2022/03/19 01:25:15;;;;;;;11.13;3.42;;;4.50;99.90;;;;;;2116113;67;20202;-73
2022/03/19 01:27:58;;;;;;;10.85;2.97;;;4.10;99.90;;;;;;2140408;67;20316;-73
2022/03/19 01:30:43;;;;;;;10.18;3.35;;;4.10;99.90;;;;;;2147686;66;20360;-73
2022/03/19 01:33:27;;;;;;;19.23;4.68;;;4.00;99.90;;;;;;2139191;67;20347;-71
2022/03/19 01:36:09;;;;;;;13.52;4.20;;;4.00;99.90;;;;;;2129293;67;20451;-73
2022/03/19 01:38:53;;;;;;;9.98;3.47;;;4.00;99.90;;;;;;2112578;67;20326;-74
2022/03/19 01:41:41;;;;;;;13.80;3.88;;;4.00;99.90;;;;;;2115179;67;20301;-72
2022/03/19 01:44:24;;;;;;;13.80;4.07;;;4.10;99.90;;;;;;2108039;67;20170;-73
2022/03/19 01:47:10;;;;;;;15.20;4.00;;;4.10;99.90;;;;;;2110674;67;20443;-72
2022/03/19 01:49:55;;;;;;;10.75;3.70;;;4.00;99.90;;;;;;2109336;67;20414;-72
2022/03/19 01:52:40;;;;;;;15.18;4.25;;;4.10;99.90;;;;;;2107086;67;20169;-73
2022/03/19 01:55:39;;;;;;;15.50;5.00;;;4.10;99.90;;;;;;2114743;67;20811;-73
2022/03/19 01:58:22;;;;;;;15.88;5.35;;;4.10;99.90;;;;;;2124459;67;20250;-73
2022/03/19 02:01:11;;;;;;;11.32;4.18;;;4.10;99.90;;;;;;2134257;66;20331;-73
2022/03/19 02:03:57;;;;;;;10.77;3.85;;;4.10;99.90;;;;;;2127432;67;20358;-73
2022/03/19 02:06:43;;;;;;;8.73;2.97;;;4.00;99.90;;;;;;2136306;67;20216;-73
2022/03/19 02:09:31;;;;;;;10.00;3.50;;;4.10;99.90;;;;;;2146645;66;20178;-73
2022/03/19 02:12:15;;;;;;;14.25;3.80;;;4.00;99.90;;;;;;2144706;66;20947;-72
2022/03/19 02:14:58;;;;;;;10.85;3.90;;;4.00;99.90;;;;;;2143489;66;20233;-73
2022/03/19 02:17:40;;;;;;;10.38;3.70;;;4.00;99.90;;;;;;2137689;67;20337;-73
2022/03/19 02:20:22;;;;;;;10.57;3.33;;;4.00;99.90;;;;;;2124454;67;20184;-74
2022/03/19 02:26:04;;;;;;;10.07;4.30;;;3.40;99.90;;;;;;2125430;67;20269;-72
2022/03/19 02:28:46;;;;;;;14.43;3.95;;;4.00;99.90;;;;;;2126998;67;20219;-73
2022/03/19 02:31:28;;;;;;;8.60;3.90;;;4.10;99.90;;;;;;2132325;67;20209;-72
2022/03/19 02:34:10;;;;;;;16.85;4.13;;;4.00;99.90;;;;;;2131463;67;20243;-73
2022/03/19 02:36:55;;;;;;;12.70;4.80;;;4.10;99.90;;;;;;2139807;67;20286;-73
2022/03/19 02:39:37;;;;;;;12.15;3.70;;;4.10;99.90;;;;;;2138752;67;20266;-73
2022/03/19 02:42:22;;;;;;;13.13;3.72;;;4.10;99.90;;;;;;2124085;67;20305;-73
2022/03/19 02:45:06;;;;;;;10.57;4.07;;;4.10;99.90;;;;;;2107571;67;20241;-72
2022/03/19 02:47:59;;;;;;;13.40;3.80;;;4.00;99.90;;;;;;2125741;67;20267;-73
2022/03/19 02:50:41;;;;;;;11.25;4.60;;;4.00;99.90;;;;;;2133057;67;20697;-72
2022/03/19 02:53:24;;;;;;;14.48;4.65;;;4.10;99.90;;;;;;2127785;67;20242;-72
2022/03/19 02:56:06;;;;;;;15.15;5.13;;;4.10;99.90;;;;;;2127071;67;20203;-73
2022/03/19 02:58:47;;;;;;;16.73;4.95;;;4.00;99.90;;;;;;2125186;67;20200;-73
2022/03/19 03:01:31;;;;;;;13.50;5.20;;;4.60;99.90;;;;;;2114707;67;20341;-73
2022/03/19 03:04:13;;;;;;;16.30;6.45;;;4.00;99.90;;;;;;2124285;67;20325;-73
2022/03/19 03:07:01;;;;;;;13.73;5.43;;;4.00;99.90;;;;;;2111231;67;20332;-74
2022/03/19 03:09:45;;;;;;;13.23;5.05;;;3.90;99.90;;;;;;2104162;68;20195;-73
2022/03/19 03:12:28;;;;;;;16.50;5.80;;;3.90;99.90;;;;;;2111949;67;20917;-73
2022/03/19 03:15:12;;;;;;;20.63;5.63;;;3.90;99.90;;;;;;2108121;67;20186;-72
2022/03/19 03:17:58;;;;;;;14.30;5.53;;;3.90;99.90;;;;;;2110196;67;20189;-73
2022/03/19 03:20:40;;;;;;;18.58;6.25;;;3.90;99.90;;;;;;2115907;67;20326;-73
2022/03/19 03:23:22;;;;;;;19.02;5.63;;;3.80;99.90;;;;;;2097053;68;20202;-73
2022/03/19 03:26:04;;;;;;;14.93;5.78;;;3.90;99.90;;;;;;2089851;68;20236;-74
2022/03/19 03:28:46;;;;;;;11.85;5.90;;;3.90;99.90;;;;;;2090791;68;20778;-74
2022/03/19 03:31:27;;;;;;;14.10;6.43;;;3.90;99.90;;;;;;2111098;67;20258;-73
2022/03/19 03:34:11;;;;;;;16.50;7.10;;;4.00;99.90;;;;;;2114135;67;20197;-74
2022/03/19 03:36:57;;;;;;;15.30;6.15;;;3.80;99.90;;;;;;2118129;67;20772;-73
2022/03/19 03:39:41;;;;;;;25.23;6.88;;;3.80;99.90;;;;;;2119194;67;20177;-73
2022/03/19 03:42:23;;;;;;;14.07;5.63;;;3.80;99.90;;;;;;2104012;68;20713;-73
2022/03/19 03:45:06;;;;;;;16.05;6.68;;;3.80;99.90;;;;;;2111424;67;20790;-73
2022/03/19 03:47:49;;;;;;;15.60;5.18;;;3.70;99.90;;;;;;2106351;67;20188;-72
2022/03/19 03:50:31;;;;;;;15.13;5.65;;;3.70;99.90;;;;;;2101030;67;20315;-73
2022/03/19 03:53:13;;;;;;;12.85;5.60;;;3.70;99.90;;;;;;2103844;68;20744;-74
2022/03/19 03:55:56;;;;;;;18.70;6.70;;;3.70;99.90;;;;;;2123185;67;20296;-74
2022/03/19 03:58:43;;;;;;;17.02;6.68;;;3.60;99.90;;;;;;2119893;67;20233;-73
2022/03/19 04:01:25;;;;;;;20.30;7.78;;;3.60;99.90;;;;;;2118916;67;20287;-71
2022/03/19 04:04:07;;;;;;;16.08;7.80;;;3.60;99.90;;;;;;2114181;67;20207;-72
2022/03/19 04:06:50;;;;;;;13.77;6.40;;;3.60;99.90;;;;;;2123909;67;20373;-72
2022/03/19 04:09:32;;;;;;;16.67;7.40;;;3.60;99.90;;;;;;2145506;66;20205;-73
2022/03/19 04:12:15;;;;;;;15.88;7.75;;;3.60;99.90;;;;;;2161117;66;20700;-72
2022/03/19 04:14:57;;;;;;;15.68;7.40;;;3.70;99.90;;;;;;2168636;66;20312;-72
2022/03/19 04:17:40;;;;;;;16.92;7.68;;;3.60;99.90;;;;;;2153809;66;20636;-72
2022/03/19 04:20:22;;;;;;;17.20;7.15;;;3.70;99.90;;;;;;2166693;66;20417;-72
2022/03/19 04:23:05;;;;;;;15.75;7.38;;;3.70;99.90;;;;;;2175972;65;20285;-73
2022/03/19 04:25:46;;;;;;;15.52;6.78;;;3.60;99.90;;;;;;2161207;66;20173;-72
2022/03/19 04:28:31;;;;;;;22.38;8.50;;;3.70;99.90;;;;;;2151526;66;20236;-72
2022/03/19 04:31:14;;;;;;;14.43;6.97;;;3.70;99.90;;;;;;2146542;66;20177;-73
2022/03/19 04:34:00;;;;;;;18.80;7.65;;;3.60;99.90;;;;;;2147569;66;20222;-74
2022/03/19 04:36:44;;;;;;;;;;;3.70;99.90;;;;;;2139177;66;20445;-72
2022/03/19 04:39:26;;;;;;;17.38;7.60;;;3.70;99.90;;;;;;2160717;66;20186;-72
2022/03/19 04:42:10;;;;;;;20.80;8.50;;;3.70;99.90;;;;;;2168371;65;20176;-72
2022/03/19 04:44:55;;;;;;;15.18;7.45;;;3.60;99.90;;;;;;2171197;65;20307;-72
2022/03/19 04:47:40;;;;;;;19.17;6.93;;;3.60;99.90;;;;;;2168169;65;20302;-74
2022/03/19 04:50:23;;;;;;;21.98;7.43;;;3.50;99.90;;;;;;2156578;66;20173;-73
2022/03/19 04:53:08;;;;;;;20.33;7.88;;;3.50;99.90;;;;;;2139054;66;20276;-73
2022/03/19 04:55:49;;;;;;;20.20;8.65;;;3.60;99.90;;;;;;2152645;66;20598;-73
2022/03/19 04:58:33;;;;;;;15.95;7.18;;;3.50;99.90;;;;;;2146596;66;20190;-73
2022/03/19 05:01:18;;;;;;;16.17;7.63;;;3.60;99.90;;;;;;2146468;66;20306;-73
2022/03/19 05:03:59;;;;;;;16.42;7.70;;;3.60;99.90;;;;;;2132707;67;20727;-73
2022/03/19 05:06:41;;;;;;;14.13;7.47;;;3.50;99.90;;;;;;2149502;66;20308;-72
2022/03/19 05:12:45;;;;;;;14.73;6.88;;;3.50;99.90;;;;;;2147088;66;20233;-72
2022/03/19 05:15:30;;;;;;;14.68;7.88;;;3.50;99.90;;;;;;2130681;67;20180;-73
2022/03/19 05:18:13;;;;;;;15.23;7.72;;;3.50;99.90;;;;;;2135809;67;20282;-72
2022/03/19 05:20:58;;;;;;;20.92;8.57;;;3.50;99.90;;;;;;2133725;66;20271;-73
2022/03/19 05:23:45;;;;;;;13.68;7.97;;;3.50;99.90;;;;;;2139623;66;20372;-73
2022/03/19 05:26:27;;;;;;;20.70;8.15;;;3.50;99.90;;;;;;2137874;67;20701;-73
2022/03/19 05:29:12;;;;;;;14.30;8.65;;;3.40;99.90;;;;;;2126574;67;20239;-72
2022/03/19 05:31:54;;;;;;;12.85;7.75;;;3.40;99.90;;;;;;2141627;66;20610;-72
2022/03/19 05:34:36;;;;;;;19.75;9.18;;;3.50;99.90;;;;;;2152229;66;20974;-72
2022/03/19 05:37:18;;;;;;;16.00;8.13;;;3.30;99.90;;;;;;2147171;66;20275;-72
2022/03/19 05:40:01;;;;;;;14.80;8.52;;;3.40;99.90;;;;;;2144046;66;20182;-71
2022/03/19 05:42:44;;;;;;;16.85;8.30;;;3.40;99.90;;;;;;2125161;67;20211;-73
2022/03/19 05:45:29;;;;;;;22.48;8.70;;;3.40;99.90;;;;;;2116560;67;20273;-72
2022/03/19 05:48:13;;;;;;;19.95;7.95;;;3.50;99.90;;;;;;2134961;67;20775;-73
2022/03/19 05:50:55;;;;;;;16.65;8.25;;;3.40;99.90;;;;;;2139826;67;20876;-73
2022/03/19 05:53:41;;;;;;;16.55;8.02;;;3.40;99.90;;;;;;2139375;67;20219;-73
2022/03/19 05:56:25;;;;;;;14.40;8.38;;;3.40;99.90;;;;;;2128424;67;20286;-72
2022/03/19 05:59:08;;;;;;;15.70;8.70;;;3.40;99.90;;;;;;2124634;67;20321;-72
2022/03/19 06:01:50;;;;;;;16.90;9.32;;;3.50;99.90;;;;;;2114005;67;20374;-72
2022/03/19 06:04:34;;;;;;;20.33;9.45;;;3.50;99.90;;;;;;2129425;67;20204;-73
2022/03/19 06:07:16;;;;;;;19.73;8.98;;;3.50;99.90;;;;;;2115669;67;20367;-73
2022/03/19 06:09:59;;;;;;;18.70;9.38;;;3.50;99.90;;;;;;2126844;67;20313;-73
2022/03/19 06:12:47;;;;;;;16.50;8.40;;;3.60;99.90;;;;;;2119249;67;20365;-73
2022/03/19 06:15:29;;;;;;;18.02;9.85;;;3.60;99.90;;;;;;2125696;67;20329;-73
2022/03/19 06:18:11;;;;;;;16.20;9.40;;;3.50;99.90;;;;;;2136040;67;20237;-73
2022/03/19 06:20:56;;;;;;;18.60;9.07;;;3.60;99.90;;;;;;2138835;67;20321;-73
2022/03/19 06:23:39;;;;;;;18.83;9.65;;;3.70;99.90;;;;;;2125979;67;20364;-74
2022/03/19 06:26:23;;;;;;;19.48;9.00;;;3.70;99.90;;;;;;2142082;66;20622;-73
2022/03/19 06:29:05;;;;;;;18.67;10.32;;;3.80;99.90;;;;;;2155692;66;20185;-74
2022/03/19 06:31:47;;;;;;;16.17;8.57;;;3.80;99.90;;;;;;2158987;66;20169;-73
2022/03/19 06:34:32;;;;;;;21.52;9.77;;;3.80;99.90;;;;;;2140757;66;20219;-72
2022/03/19 06:37:20;;;;;;;;;;;3.80;99.90;;;;;;2146645;66;20632;-73
2022/03/19 06:40:10;;;;;;;18.42;8.38;;;3.90;99.90;;;;;;2143287;66;20651;-73
2022/03/19 06:42:52;;;;;;;15.50;8.18;;;3.90;99.90;;;;;;2140887;66;20249;-73
2022/03/19 06:45:34;;;;;;;19.58;8.45;;;4.00;99.90;;;;;;2153482;66;20365;-73
2022/03/19 06:48:15;;;;;;;17.20;8.07;;;4.10;99.90;;;;;;2161686;66;20251;-73
2022/03/19 06:50:57;;;;;;;15.55;7.57;;;4.10;99.90;;;;;;2145525;66;20679;-73
2022/03/19 06:53:42;;;;;;;11.48;7.85;;;4.20;99.90;;;;;;2132676;67;20275;-73
2022/03/19 06:56:23;;;;;;;17.38;7.28;;;4.20;99.90;;;;;;2127133;67;20303;-73
2022/03/19 06:59:06;;;;;;;21.20;7.20;;;4.30;99.90;;;;;;2125462;67;20176;-73
2022/03/19 07:01:49;;;;;;;15.80;6.50;;;4.40;99.90;;;;;;2135928;67;20706;-73
2022/03/19 07:04:31;;;;;;;12.45;5.97;;;4.40;99.90;;;;;;2132348;67;20360;-74
2022/03/19 07:07:13;;;;;;;15.65;7.40;;;4.50;99.90;;;;;;2138017;67;20762;-72
2022/03/19 07:09:56;;;;;;;20.33;7.05;;;4.60;99.90;;;;;;2153208;66;20269;-75
2022/03/19 07:12:42;;;;;;;14.68;7.03;;;4.60;99.90;;;;;;2139735;67;20865;-74
2022/03/19 07:15:29;;;;;;;11.30;5.45;;;4.70;99.90;;;;;;2139666;67;20355;-73
2022/03/19 07:18:11;;;;;;;13.82;5.82;;;4.80;99.90;;;;;;2153272;66;20199;-73
2022/03/19 07:20:52;;;;;;;9.98;5.68;;;4.90;99.90;;;;;;2148142;66;20276;-73
2022/03/19 07:23:40;;;;;;;11.50;5.65;;;5.00;99.90;;;;;;2146660;66;20814;-74
2022/03/19 07:26:22;;;;;;;16.33;6.63;;;5.00;99.90;;;;;;2131958;67;20275;-73
2022/03/19 07:29:05;;;;;;;15.85;6.30;;;5.10;99.90;;;;;;2125143;67;20219;-74
2022/03/19 07:31:49;;;;;;;11.68;5.35;;;5.20;99.90;;;;;;2111305;67;20185;-74
2022/03/19 07:34:34;;;;;;;13.40;5.38;;;5.20;99.90;;;;;;2117984;67;20297;-73
2022/03/19 07:37:16;;;;;;;13.43;5.63;;;5.30;99.90;;;;;;2110826;67;20335;-72
2022/03/19 07:40:00;;;;;;;14.70;6.10;;;5.30;99.90;;;;;;2117274;67;20351;-73
2022/03/19 07:42:45;;;;;;;12.65;5.80;;;6.20;99.90;;;;;;2116213;67;20306;-74
2022/03/19 07:45:27;;;;;;;15.05;7.13;;;5.60;99.90;;;;;;2118191;67;20200;-73
2022/03/19 07:48:10;;;;;;;13.93;5.72;;;5.90;99.90;;;;;;2116074;67;20220;-74
2022/03/19 07:50:52;;;;;;;14.88;5.85;;;5.60;99.90;;;;;;2111284;67;20237;-73
2022/03/19 07:53:37;;;;;;;14.10;5.97;;;5.60;99.90;;;;;;2103913;68;20285;-72
2022/03/19 07:56:20;;;;;;;14.15;5.63;;;5.70;99.90;;;;;;2111173;67;20645;-73
2022/03/19 07:59:04;;;;;;;13.50;5.18;;;5.80;99.90;;;;;;2123235;67;20317;-74
2022/03/19 08:01:50;;;;;;;12.73;5.22;;;5.80;99.90;;;;;;2132168;67;20700;-73
2022/03/19 08:04:35;;;;;;;10.85;4.72;;;5.90;99.90;;;;;;2132280;67;20362;-74
2022/03/19 08:07:19;;;;;;;10.93;4.65;;;5.90;99.90;;;;;;2124973;67;20205;-72
2022/03/19 08:10:01;;;;;;;14.13;5.03;;;6.00;99.90;;;;;;2117947;67;23181;-72
2022/03/19 08:12:44;;;;;;;11.02;5.05;;;6.10;99.90;;;;;;2125927;67;20321;-72
2022/03/19 08:15:29;;;;;;;17.55;5.68;;;6.20;99.90;;;;;;2116191;67;20428;-74
2022/03/19 08:18:11;;;;;;;11.50;4.97;;;6.20;99.90;;;;;;2123218;67;20313;-72
2022/03/19 08:20:55;;;;;;;13.13;5.78;;;6.30;99.90;;;;;;2111586;67;20264;-76
2022/03/19 08:23:37;;;;;;;15.90;5.10;;;6.30;99.90;;;;;;2123715;67;20861;-73
2022/03/19 08:26:18;;;;;;;11.90;5.38;;;6.40;99.90;;;;;;2144097;66;20409;-73
2022/03/19 08:29:02;;;;;;;11.35;5.13;;;6.50;99.90;;;;;;2135241;66;20178;-73
2022/03/19 08:31:44;;;;;;;10.73;5.32;;;6.50;99.90;;;;;;2126058;67;20865;-74
2022/03/19 08:34:27;;;;;;;10.85;4.47;;;6.60;99.90;;;;;;2124732;67;20740;-73
2022/03/19 08:37:09;;;;;;;13.80;4.07;;;6.70;99.90;;;;;;2132218;67;20171;-74
2022/03/19 08:42:51;;;;;;;12.55;4.50;;;6.80;99.90;;;;;;2110025;67;20311;-74
2022/03/19 08:45:34;;;;;;;12.85;4.57;;;6.90;99.90;;;;;;2117746;67;20345;-73
2022/03/19 08:48:19;;;;;;;11.18;4.53;;;6.90;99.90;;;;;;2109750;67;20243;-74
2022/03/19 08:54:00;;;;;;;12.13;4.30;;;7.10;99.90;;;;;;2123001;67;20721;-73
2022/03/19 08:56:48;;;;;;;11.05;3.72;;;7.20;99.90;;;;;;2105695;67;20694;-74
2022/03/19 08:59:32;;;;;;;11.20;3.55;;;7.30;99.90;;;;;;2110211;67;20305;-73
2022/03/19 09:02:14;;;;;;;9.80;4.03;;;7.40;99.90;;;;;;2103783;68;20347;-73
2022/03/19 09:04:56;;;;;;;9.95;3.90;;;7.40;99.90;;;;;;2094190;68;20345;-73
2022/03/19 09:07:57;;;;;;;14.10;5.47;;;7.50;99.90;;;;;;2090047;68;20254;-73
2022/03/19 09:10:39;;;;;;;12.95;3.33;;;7.60;99.90;;;;;;2106781;67;20214;-73
2022/03/19 09:13:23;;;;;;;9.23;3.35;;;7.70;99.90;;;;;;2105451;67;20331;-73
2022/03/19 09:16:09;;;;;;;7.32;3.55;;;7.80;99.90;;;;;;2104352;67;20181;-73
2022/03/19 09:18:57;;;;;;;16.85;3.38;;;7.90;99.90;;;;;;2102380;68;20313;-73
2022/03/19 09:21:42;;;;;;;10.48;3.60;;;7.90;99.90;;;;;;2093144;68;20214;-73
2022/03/19 09:24:25;;;;;;;9.25;3.63;;;8.10;99.90;;;;;;2102704;68;20368;-73
2022/03/19 09:27:10;;;;;;;12.52;4.95;;;8.00;99.90;;;;;;2095647;68;20303;-72
2022/03/19 09:29:52;;;;;;;11.90;3.55;;;8.10;99.90;;;;;;2089626;68;20223;-72
2022/03/19 09:32:38;;;;;;;7.13;3.93;;;8.30;99.90;;;;;;2085571;68;20725;-73
2022/03/19 09:35:20;;;;;;;8.43;3.33;;;8.40;99.90;;;;;;2105639;67;20413;-73
2022/03/19 09:38:02;;;;;;;13.35;4.20;;;8.50;99.90;;;;;;2094215;68;20192;-73
2022/03/19 09:40:44;;;;;;;10.02;3.40;;;8.60;99.90;;;;;;2090195;68;20238;-74
2022/03/19 09:43:27;;;;;;;10.65;3.25;;;8.60;99.90;;;;;;2097662;68;20646;-73
2022/03/19 09:46:09;;;;;;;11.00;3.42;;;8.70;99.90;;;;;;2103176;67;20187;-73
2022/03/19 09:48:53;;;;;;;8.55;3.78;;;8.80;99.90;;;;;;2105994;67;20190;-73
2022/03/19 09:51:40;;;;;;;8.25;4.05;;;8.80;99.90;;;;;;2117744;67;20436;-73
2022/03/19 09:54:22;;;;;;;10.93;3.58;;;8.90;99.90;;;;;;2130079;67;20839;-73
2022/03/19 09:57:04;;;;;;;12.85;3.80;;;9.00;99.90;;;;;;2126648;67;20429;-74
2022/03/19 09:59:47;;;;;;;10.52;3.97;;;9.00;99.90;;;;;;2140888;66;20162;-73
2022/03/19 10:02:29;;;;;;;7.45;3.08;;;9.10;99.90;;;;;;2120917;67;20188;-74
2022/03/19 10:11:13;;;;;;;14.05;4.07;;;9.30;99.90;;;;;;2107104;67;20236;-75
2022/03/19 10:13:57;;;;;;;10.77;3.83;;;9.40;99.90;;;;;;2117278;67;20270;-72
2022/03/19 10:16:41;;;;;;;11.65;3.53;;;9.40;99.90;;;;;;2126957;67;20202;-73
2022/03/19 10:19:27;;;;;;;9.05;3.60;;;9.50;99.90;;;;;;2117925;67;20194;-74
2022/03/19 10:22:11;;;;;;;6.45;3.40;;;9.60;99.90;;;;;;2111303;67;20672;-74
2022/03/19 10:25:19;;;;;;;10.82;3.75;;;9.70;99.90;;;;;;2118019;67;20268;-75
2022/03/19 10:28:11;;;;;;;9.23;3.20;;;9.90;99.90;;;;;;2117572;67;20210;-74
2022/03/19 10:30:57;;;;;;;10.55;3.38;;;9.90;99.90;;;;;;2116627;67;20168;-72
2022/03/19 10:33:40;;;;;;;10.70;3.20;;;9.90;99.90;;;;;;2111469;67;20644;-75
2022/03/19 10:36:40;;;;;;;10.70;3.45;;;10.10;99.90;;;;;;2120170;67;20224;-73
2022/03/19 10:39:31;;;;;;;6.88;2.78;;;10.10;99.90;;;;;;2125370;67;20341;-73
2022/03/19 10:42:15;;;;;;;7.55;2.58;;;10.20;99.90;;;;;;2131912;67;20297;-73
2022/03/19 10:44:59;;;;;;;7.63;2.83;;;10.50;99.90;;;;;;2110177;67;20787;-73
2022/03/19 10:47:45;;;;;;;5.03;2.30;;;10.70;99.90;;;;;;2103206;68;20932;-74
2022/03/19 10:50:26;;;;;;;4.82;2.42;;;11.00;99.60;;;;;;2113937;67;20378;-73
2022/03/19 10:53:11;;;;;;;7.97;2.80;;;11.40;98.50;;;;;;2114774;67;20398;-73
2022/03/19 10:55:53;;;;;;;6.57;3.17;;;11.80;96.80;;;;;;2113695;67;20180;-74
2022/03/19 10:58:38;;;;;;;4.70;2.50;;;12.00;96.90;;;;;;2135328;67;20594;-74
2022/03/19 11:01:21;;;;;;;6.88;3.03;;;12.40;96.20;;;;;;2129253;67;20414;-74
2022/03/19 11:04:05;;;;;;;7.68;3.20;;;12.70;94.90;;;;;;2124849;67;20316;-75
2022/03/19 11:06:46;;;;;;;9.45;2.90;;;13.10;92.10;;;;;;2137899;67;20171;-74
2022/03/19 11:09:34;;;;;;;6.18;2.20;;;13.50;85.80;;;;;;2145351;66;20174;-74
2022/03/19 11:12:26;;;;;;;6.25;2.63;;;13.80;82.80;;;;;;2129114;67;20352;-73
2022/03/19 11:15:11;;;;;;;4.95;1.77;;;14.20;77.00;;;;;;2133633;67;20214;-74
2022/03/19 11:17:56;;;;;;;3.47;2.08;;;14.70;74.60;;;;;;2129139;67;20192;-76
2022/03/19 11:20:40;;;;;;;5.32;1.70;;;15.10;69.10;;;;;;2127032;67;20176;-76
2022/03/19 11:23:32;;;;;;;5.05;1.90;;;15.30;66.20;;;;;;2133687;67;20189;-75
2022/03/19 11:26:22;;;;;;;5.72;2.25;;;15.60;62.80;;;;;;2121103;67;20354;-75
2022/03/19 11:29:05;;;;;;;4.18;2.08;;;16.00;61.60;;;;;;2128620;67;20236;-74
2022/03/19 11:32:01;;;;;;;6.15;2.15;;;16.50;58.50;;;;;;2090329;68;20195;-74
2022/03/19 11:34:46;;;;;;;6.70;2.15;;;16.80;57.30;;;;;;2110252;67;20185;-75
2022/03/19 11:37:59;;;;;;;5.43;1.95;;;17.20;56.40;;;;;;2132355;67;20309;-74
2022/03/19 11:40:50;;;;;;;2.47;1.63;;;17.70;53.70;;;;;;2106586;67;20438;-75
2022/03/19 11:43:32;;;;;;;2.90;1.67;;;18.00;53.10;;;;;;1890742;67;15185646;-76
2022/03/19 11:46:17;;;;;;;4.27;1.80;;;18.30;51.70;;;;;;2125015;67;20180;-75
2022/03/19 11:48:59;;;;;;;2.85;1.55;;;18.60;50.30;;;;;;2118176;67;20671;-74
2022/03/19 11:51:41;;;;;;;4.55;1.80;;;19.00;48.70;;;;;;2116864;67;20233;-75
2022/03/19 11:54:27;;;;;;;3.40;1.70;;;19.60;49.00;;;;;;2109122;67;20658;-75
2022/03/19 11:57:08;;;;;;;3.65;1.50;;;19.80;48.60;;;;;;2114096;67;20174;-75
2022/03/19 11:59:57;;;;;;;3.88;1.33;;;20.20;48.20;;;;;;2102872;67;20316;-76
2022/03/19 12:03:05;;;;;;;3.25;1.63;;;20.40;46.40;;;;;;2117875;67;20176;-75
2022/03/19 12:05:49;;;;;;;1.95;1.30;;;20.50;44.10;;;;;;2109290;67;20271;-75
2022/03/19 12:08:31;;;;;;;3.00;1.42;;;20.50;43.30;;;;;;2102634;67;20237;-75
2022/03/19 12:11:17;;;;;;;2.42;1.33;;;20.80;42.00;;;;;;2097336;68;20212;-77
2022/03/19 12:14:01;;;;;;;3.28;1.50;;;21.00;42.60;;;;;;2090889;68;20294;-77
2022/03/19 12:16:45;;;;;;;2.10;1.17;;;21.10;41.50;;;;;;2092457;68;20262;-78
2022/03/19 12:19:54;;;;;;;4.35;1.52;;;21.30;40.60;;;;;;2083530;68;20285;-77
2022/03/19 12:22:41;;;;;;;4.88;1.27;;;21.60;42.70;;;;;;2089319;68;20262;-78
2022/03/19 12:25:34;;;;;;;3.10;1.40;;;22.00;41.30;;;;;;2102003;67;20213;-76
2022/03/19 12:28:18;;;;;;;2.28;1.20;;;22.20;41.10;;;;;;2109570;67;20203;-76
2022/03/19 12:31:14;;;;;;;2.70;1.63;;;22.70;41.10;;;;;;2103781;68;21073;-77
2022/03/19 12:33:58;;;;;;;4.22;1.50;;;23.30;40.50;;;;;;2117123;67;20317;-76
2022/03/19 12:36:42;;;;;;;4.18;1.20;;;23.90;38.80;;;;;;2123899;67;20175;-76
2022/03/19 12:39:24;;;;;;;2.42;1.42;;;24.20;37.90;;;;;;2116958;67;20326;-77
2022/03/19 12:42:10;;;;;;;1.73;1.40;;;24.50;37.10;;;;;;2110112;67;20330;-75
2022/03/19 12:44:59;;;;;;;4.30;1.27;;;24.70;36.50;;;;;;2119918;67;20321;-77
2022/03/19 12:47:42;;;;;;;4.22;1.50;;;24.80;35.00;;;;;;2131292;67;20675;-75
2022/03/19 12:50:27;;;;;;;1.60;1.17;;;24.80;35.30;;;;;;2102959;67;20209;-75
2022/03/19 12:53:30;;;;;;;3.08;1.40;;;24.90;34.70;;;;;;2111505;67;20334;-76
2022/03/19 12:56:18;;;;;;;2.08;1.50;;;25.30;35.30;;;;;;2109315;67;20185;-76
2022/03/19 12:59:00;;;;;;;3.33;1.40;;;25.70;35.00;;;;;;2108912;67;20248;-75
2022/03/19 13:01:42;;;;;;;3.33;1.67;;;25.90;33.80;;;;;;2108420;67;20236;-76
2022/03/19 13:04:35;;;;;;;5.88;1.83;;;26.20;34.00;;;;;;2100838;68;20254;-77
2022/03/19 13:07:18;;;;;;;3.97;1.60;;;26.40;33.50;;;;;;2107567;67;20275;-76
2022/03/19 13:10:00;;;;;;;3.75;2.08;;;26.40;33.50;;;;;;2109460;67;20264;-75
2022/03/19 13:12:42;;;;;;;3.05;1.70;;;26.80;33.10;;;;;;2104866;67;20298;-76
2022/03/19 13:15:24;;;;;;;3.38;1.50;;;27.20;32.60;;;;;;2120622;67;20215;-76
2022/03/19 13:18:09;;;;;;;2.70;1.42;;;27.60;32.40;;;;;;2129099;67;20588;-75
2022/03/19 13:20:58;;;;;;;4.80;1.60;;;27.80;32.00;;;;;;2115852;67;20198;-77
2022/03/19 13:23:41;;;;;;;2.63;1.85;;;27.80;32.00;;;;;;2104145;68;20266;-76
2022/03/19 13:26:23;;;;;;;3.13;1.90;;;27.80;31.40;;;;;;2095378;68;20386;-76
2022/03/19 13:29:12;;;;;;;3.65;1.67;;;28.00;31.80;;;;;;2097312;68;20211;-75
2022/03/19 13:31:59;;;;;;;2.75;1.70;;;28.60;31.90;;;;;;2116173;67;20256;-75
2022/03/19 13:34:46;;;;;;;7.15;1.60;;;28.80;31.10;;;;;;2108981;67;20231;-76
2022/03/19 13:37:36;;;;;;;2.53;1.63;;;28.80;31.30;;;;;;2101968;67;20222;-75
2022/03/19 13:40:22;;;;;;;2.42;1.80;;;28.90;31.20;;;;;;2140952;66;20363;-74
2022/03/19 13:43:07;;;;;;;4.35;1.90;;;28.90;30.60;;;;;;2145874;66;20266;-75
2022/03/19 13:46:11;;;;;;;2.45;1.65;;;28.90;30.60;;;;;;2136077;67;20466;-76
2022/03/19 13:49:14;;;;;;;2.67;1.50;;;29.00;31.50;;;;;;2133369;67;20254;-75
2022/03/19 13:51:57;;;;;;;3.13;1.60;;;29.30;30.60;;;;;;2122778;67;20338;-75
2022/03/19 13:54:46;;;;;;;3.53;1.58;;;29.30;29.90;;;;;;2114612;67;20181;-75
2022/03/19 13:57:36;;;;;;;3.72;1.85;;;29.30;29.70;;;;;;2133530;66;20352;-76
2022/03/19 14:00:23;;;;;;;2.63;1.40;;;29.00;29.80;;;;;;2138203;66;20293;-76
2022/03/19 14:03:16;;;;;;;4.80;1.70;;;28.60;29.50;;;;;;2120005;67;20280;-76
2022/03/19 14:06:02;;;;;;;4.53;1.65;;;28.00;29.90;;;;;;2120300;67;20255;-75
2022/03/19 14:08:51;;;;;;;3.58;1.63;;;28.00;29.90;;;;;;2123872;67;20661;-75
2022/03/19 14:11:39;;;;;;;4.00;1.60;;;27.90;30.30;;;;;;2134691;67;20371;-76
2022/03/19 14:14:24;;;;;;;5.03;1.95;;;27.90;30.40;;;;;;2131301;67;20359;-76
2022/03/19 14:17:12;;;;;;;4.10;1.80;;;28.10;30.50;;;;;;2131751;67;20172;-76
2022/03/19 14:19:57;;;;;;;2.53;1.42;;;28.20;29.90;;;;;;2135367;67;20362;-76
2022/03/19 14:22:40;;;;;;;2.78;1.60;;;27.70;30.00;;;;;;2127234;67;20470;-77
2022/03/19 14:25:22;;;;;;;4.18;1.80;;;27.70;30.40;;;;;;2124913;67;20354;-77
2022/03/19 14:28:06;;;;;;;3.33;1.80;;;27.80;30.70;;;;;;2122479;67;20186;-75
2022/03/19 14:30:49;;;;;;;3.97;1.80;;;27.90;30.70;;;;;;2117804;67;20432;-78
2022/03/19 14:33:32;;;;;;;6.53;2.15;;;27.70;30.90;;;;;;2129583;67;20250;-76
2022/03/19 14:36:26;;;;;;;5.07;2.22;;;27.30;31.40;;;;;;2128204;67;20270;-75
2022/03/19 14:39:12;;;;;;;2.75;1.42;;;27.00;31.40;;;;;;2114069;67;20419;-78